sensor_id;sensor_type;location;lat;lon;timestamp;temperature;humidity
45012;DHT22;63444;48.148;11.542;2023-05-13T00:00:36;12.20;99.90
45012;DHT22;63444;48.148;11.542;2023-05-13T00:03:01;12.10;99.90
45012;DHT22;63444;48.148;11.542;2023-05-13T00:05:27;12.10;99.90
45012;DHT22;63444;48.148;11.542;2023-05-13T00:07:53;12.10;99.90
45012;DHT22;63444;48.148;11.542;2023-05-13T00:10:19;12.10;99.90
45012;DHT22;63444;48.148;11.542;2023-05-13T00:12:45;12.10;99.90
45012;DHT22;63444;48.148;11.542;2023-05-13T00:15:11;12.20;99.90
45012;DHT22;63444;48.148;11.542;2023-05-13T00:17:37;12.00;99.90
45012;DHT22;63444;48.148;11.542;2023-05-13T00:20:03;12.00;99.90
45012;DHT22;63444;48.148;11.542;2023-05-13T00:22:28;12.00;99.90
45012;DHT22;63444;48.148;11.542;2023-05-13T00:24:54;12.00;99.90
45012;DHT22;63444;48.148;11.542;2023-05-13T00:27:20;12.00;99.90
45012;DHT22;63444;48.148;11.542;2023-05-13T00:29:45;11.90;99.90
45012;DHT22;63444;48.148;11.542;2023-05-13T00:32:11;12.20;99.90
45012;DHT22;63444;48.148;11.542;2023-05-13T00:34:36;12.00;99.90
45012;DHT22;63444;48.148;11.542;2023-05-13T00:37:02;11.90;99.90
45012;DHT22;63444;48.148;11.542;2023-05-13T00:39:28;11.90;99.90
45012;DHT22;63444;48.148;11.542;2023-05-13T00:41:53;11.90;99.90
45012;DHT22;63444;48.148;11.542;2023-05-13T00:44:19;11.90;99.90
45012;DHT22;63444;48.148;11.542;2023-05-13T00:46:44;11.90;99.90
45012;DHT22;63444;48.148;11.542;2023-05-13T00:49:10;11.90;99.90
45012;DHT22;63444;48.148;11.542;2023-05-13T00:51:36;11.90;99.90
45012;DHT22;63444;48.148;11.542;2023-05-13T00:54:01;11.90;99.90
45012;DHT22;63444;48.148;11.542;2023-05-13T00:56:27;11.90;99.90
45012;DHT22;63444;48.148;11.542;2023-05-13T00:58:52;11.90;99.90
45012;DHT22;63444;48.148;11.542;2023-05-13T01:01:52;11.90;99.90
45012;DHT22;63444;48.148;11.542;2023-05-13T01:04:41;11.90;99.90
45012;DHT22;63444;48.148;11.542;2023-05-13T01:07:28;11.90;99.90
45012;DHT22;63444;48.148;11.542;2023-05-13T01:10:08;11.80;99.90
45012;DHT22;63444;48.148;11.542;2023-05-13T01:12:40;11.80;99.90
45012;DHT22;63444;48.148;11.542;2023-05-13T01:15:15;11.80;99.90
45012;DHT22;63444;48.148;11.542;2023-05-13T01:20:29;11.90;99.90
45012;DHT22;63444;48.148;11.542;2023-05-13T01:22:55;11.80;99.90
45012;DHT22;63444;48.148;11.542;2023-05-13T01:25:22;11.80;99.90
45012;DHT22;63444;48.148;11.542;2023-05-13T01:27:48;11.80;99.90
45012;DHT22;63444;48.148;11.542;2023-05-13T01:30:14;11.70;99.90
45012;DHT22;63444;48.148;11.542;2023-05-13T01:32:40;11.70;99.90
45012;DHT22;63444;48.148;11.542;2023-05-13T01:35:08;11.70;99.90
45012;DHT22;63444;48.148;11.542;2023-05-13T01:37:35;11.70;99.90
45012;DHT22;63444;48.148;11.542;2023-05-13T01:40:01;11.70;99.90
45012;DHT22;63444;48.148;11.542;2023-05-13T01:42:28;11.70;99.90
45012;DHT22;63444;48.148;11.542;2023-05-13T01:44:54;11.90;99.90
45012;DHT22;63444;48.148;11.542;2023-05-13T01:47:20;11.80;99.90
45012;DHT22;63444;48.148;11.542;2023-05-13T01:49:45;11.70;99.90
45012;DHT22;63444;48.148;11.542;2023-05-13T01:52:11;11.70;99.90
45012;DHT22;63444;48.148;11.542;2023-05-13T01:54:36;11.70;99.90
45012;DHT22;63444;48.148;11.542;2023-05-13T01:57:02;11.70;99.90
45012;DHT22;63444;48.148;11.542;2023-05-13T01:59:28;11.60;99.90
45012;DHT22;63444;48.148;11.542;2023-05-13T02:01:54;11.60;99.90
45012;DHT22;63444;48.148;11.542;2023-05-13T02:04:20;11.70;99.90
45012;DHT22;63444;48.148;11.542;2023-05-13T02:06:45;11.70;99.90
45012;DHT22;63444;48.148;11.542;2023-05-13T02:09:12;11.70;99.90
45012;DHT22;63444;48.148;11.542;2023-05-13T02:11:38;11.70;99.90
45012;DHT22;63444;48.148;11.542;2023-05-13T02:14:03;11.70;99.90
45012;DHT22;63444;48.148;11.542;2023-05-13T02:16:30;11.70;99.90
45012;DHT22;63444;48.148;11.542;2023-05-13T02:18:56;11.60;99.90
45012;DHT22;63444;48.148;11.542;2023-05-13T02:21:21;11.50;99.90
45012;DHT22;63444;48.148;11.542;2023-05-13T02:23:47;11.50;99.90
45012;DHT22;63444;48.148;11.542;2023-05-13T02:26:12;11.50;99.90
45012;DHT22;63444;48.148;11.542;2023-05-13T02:28:38;11.50;99.90
45012;DHT22;63444;48.148;11.542;2023-05-13T02:31:04;11.50;99.90
45012;DHT22;63444;48.148;11.542;2023-05-13T02:33:29;11.50;99.90
45012;DHT22;63444;48.148;11.542;2023-05-13T02:35:55;11.50;99.90
45012;DHT22;63444;48.148;11.542;2023-05-13T02:38:21;11.50;99.90
45012;DHT22;63444;48.148;11.542;2023-05-13T02:40:46;11.50;99.90
45012;DHT22;63444;48.148;11.542;2023-05-13T02:43:12;11.50;99.90
45012;DHT22;63444;48.148;11.542;2023-05-13T02:45:39;11.50;99.90
45012;DHT22;63444;48.148;11.542;2023-05-13T02:48:05;11.50;99.90
45012;DHT22;63444;48.148;11.542;2023-05-13T02:50:30;11.50;99.90
45012;DHT22;63444;48.148;11.542;2023-05-13T02:52:56;11.40;99.90
45012;DHT22;63444;48.148;11.542;2023-05-13T02:55:22;11.40;99.90
45012;DHT22;63444;48.148;11.542;2023-05-13T02:57:47;11.40;99.90
45012;DHT22;63444;48.148;11.542;2023-05-13T03:00:13;11.40;99.90
45012;DHT22;63444;48.148;11.542;2023-05-13T03:02:39;11.40;99.90
45012;DHT22;63444;48.148;11.542;2023-05-13T03:05:05;11.50;99.90
45012;DHT22;63444;48.148;11.542;2023-05-13T03:07:31;11.50;99.90
45012;DHT22;63444;48.148;11.542;2023-05-13T03:09:56;11.40;99.90
45012;DHT22;63444;48.148;11.542;2023-05-13T03:12:22;11.30;99.90
45012;DHT22;63444;48.148;11.542;2023-05-13T03:14:47;11.40;99.90
45012;DHT22;63444;48.148;11.542;2023-05-13T03:17:13;11.40;99.90
45012;DHT22;63444;48.148;11.542;2023-05-13T03:19:39;11.40;99.90
45012;DHT22;63444;48.148;11.542;2023-05-13T03:22:05;11.20;99.90
45012;DHT22;63444;48.148;11.542;2023-05-13T03:24:31;11.30;99.90
45012;DHT22;63444;48.148;11.542;2023-05-13T03:26:57;11.40;99.90
45012;DHT22;63444;48.148;11.542;2023-05-13T03:29:22;11.40;99.90
45012;DHT22;63444;48.148;11.542;2023-05-13T03:31:48;11.40;99.90
45012;DHT22;63444;48.148;11.542;2023-05-13T03:34:14;11.40;99.90
45012;DHT22;63444;48.148;11.542;2023-05-13T03:36:40;11.60;99.90
45012;DHT22;63444;48.148;11.542;2023-05-13T03:39:06;11.40;99.90
45012;DHT22;63444;48.148;11.542;2023-05-13T03:41:32;11.40;99.90
45012;DHT22;63444;48.148;11.542;2023-05-13T03:43:58;11.40;99.90
45012;DHT22;63444;48.148;11.542;2023-05-13T03:46:24;11.60;99.90
45012;DHT22;63444;48.148;11.542;2023-05-13T03:48:51;11.50;99.90
45012;DHT22;63444;48.148;11.542;2023-05-13T03:51:17;11.40;99.90
45012;DHT22;63444;48.148;11.542;2023-05-13T03:53:43;11.40;99.90
45012;DHT22;63444;48.148;11.542;2023-05-13T03:56:08;11.40;99.90
45012;DHT22;63444;48.148;11.542;2023-05-13T03:58:34;11.30;99.90
45012;DHT22;63444;48.148;11.542;2023-05-13T04:00:59;11.40;99.90
45012;DHT22;63444;48.148;11.542;2023-05-13T04:03:25;11.30;99.90
45012;DHT22;63444;48.148;11.542;2023-05-13T04:05:51;11.30;99.90
45012;DHT22;63444;48.148;11.542;2023-05-13T04:08:16;11.30;99.90
45012;DHT22;63444;48.148;11.542;2023-05-13T04:10:42;11.30;99.90
45012;DHT22;63444;48.148;11.542;2023-05-13T04:13:08;11.40;99.90
45012;DHT22;63444;48.148;11.542;2023-05-13T04:15:33;11.20;99.90
45012;DHT22;63444;48.148;11.542;2023-05-13T04:17:59;11.20;99.90
45012;DHT22;63444;48.148;11.542;2023-05-13T04:20:25;11.20;99.90
45012;DHT22;63444;48.148;11.542;2023-05-13T04:22:50;11.20;99.90
45012;DHT22;63444;48.148;11.542;2023-05-13T04:25:16;11.20;99.90
45012;DHT22;63444;48.148;11.542;2023-05-13T04:27:42;11.20;99.90
45012;DHT22;63444;48.148;11.542;2023-05-13T04:30:08;11.30;99.90
45012;DHT22;63444;48.148;11.542;2023-05-13T04:32:34;11.20;99.90
45012;DHT22;63444;48.148;11.542;2023-05-13T04:34:59;11.20;99.90
45012;DHT22;63444;48.148;11.542;2023-05-13T04:37:25;11.20;99.90
45012;DHT22;63444;48.148;11.542;2023-05-13T04:39:50;11.20;99.90
45012;DHT22;63444;48.148;11.542;2023-05-13T04:42:16;11.20;99.90
45012;DHT22;63444;48.148;11.542;2023-05-13T04:44:42;11.10;99.90
45012;DHT22;63444;48.148;11.542;2023-05-13T04:47:08;11.40;99.90
45012;DHT22;63444;48.148;11.542;2023-05-13T04:49:34;11.20;99.90
45012;DHT22;63444;48.148;11.542;2023-05-13T04:52:01;11.20;99.90
45012;DHT22;63444;48.148;11.542;2023-05-13T04:54:27;11.20;99.90
45012;DHT22;63444;48.148;11.542;2023-05-13T04:56:53;11.20;99.90
45012;DHT22;63444;48.148;11.542;2023-05-13T04:59:18;11.20;99.90
45012;DHT22;63444;48.148;11.542;2023-05-13T05:01:44;11.10;99.90
45012;DHT22;63444;48.148;11.542;2023-05-13T05:04:11;11.10;99.90
45012;DHT22;63444;48.148;11.542;2023-05-13T05:06:36;11.10;99.90
45012;DHT22;63444;48.148;11.542;2023-05-13T05:09:02;11.20;99.90
45012;DHT22;63444;48.148;11.542;2023-05-13T05:11:28;11.10;99.90
45012;DHT22;63444;48.148;11.542;2023-05-13T05:13:53;11.20;99.90
45012;DHT22;63444;48.148;11.542;2023-05-13T05:16:19;11.20;99.90
45012;DHT22;63444;48.148;11.542;2023-05-13T05:18:44;11.20;99.90
45012;DHT22;63444;48.148;11.542;2023-05-13T05:21:11;11.10;99.90
45012;DHT22;63444;48.148;11.542;2023-05-13T05:23:37;11.10;99.90
45012;DHT22;63444;48.148;11.542;2023-05-13T05:26:02;11.10;99.90
45012;DHT22;63444;48.148;11.542;2023-05-13T05:28:28;11.10;99.90
45012;DHT22;63444;48.148;11.542;2023-05-13T05:30:54;11.10;99.90
45012;DHT22;63444;48.148;11.542;2023-05-13T05:33:21;11.10;99.90
45012;DHT22;63444;48.148;11.542;2023-05-13T05:35:46;11.10;99.90
45012;DHT22;63444;48.148;11.542;2023-05-13T05:38:12;11.30;99.90
45012;DHT22;63444;48.148;11.542;2023-05-13T05:40:40;11.20;99.90
45012;DHT22;63444;48.148;11.542;2023-05-13T05:43:06;11.20;99.90
45012;DHT22;63444;48.148;11.542;2023-05-13T05:45:33;11.20;99.90
45012;DHT22;63444;48.148;11.542;2023-05-13T05:48:00;11.20;99.90
45012;DHT22;63444;48.148;11.542;2023-05-13T05:50:27;11.20;99.90
45012;DHT22;63444;48.148;11.542;2023-05-13T05:52:53;11.30;99.90
45012;DHT22;63444;48.148;11.542;2023-05-13T05:55:19;11.20;99.90
45012;DHT22;63444;48.148;11.542;2023-05-13T05:57:44;11.20;99.90
45012;DHT22;63444;48.148;11.542;2023-05-13T06:00:10;11.30;99.90
45012;DHT22;63444;48.148;11.542;2023-05-13T06:02:36;11.30;99.90
45012;DHT22;63444;48.148;11.542;2023-05-13T06:05:02;11.30;99.90
45012;DHT22;63444;48.148;11.542;2023-05-13T06:07:27;11.30;99.90
45012;DHT22;63444;48.148;11.542;2023-05-13T06:09:53;11.30;99.90
45012;DHT22;63444;48.148;11.542;2023-05-13T06:12:19;11.30;99.90
45012;DHT22;63444;48.148;11.542;2023-05-13T06:14:45;11.30;99.90
45012;DHT22;63444;48.148;11.542;2023-05-13T06:17:10;11.20;99.90
45012;DHT22;63444;48.148;11.542;2023-05-13T06:19:39;11.20;99.90
45012;DHT22;63444;48.148;11.542;2023-05-13T06:22:09;11.20;99.90
45012;DHT22;63444;48.148;11.542;2023-05-13T06:24:35;11.20;99.90
45012;DHT22;63444;48.148;11.542;2023-05-13T06:27:01;11.20;99.90
45012;DHT22;63444;48.148;11.542;2023-05-13T06:29:27;11.30;99.90
45012;DHT22;63444;48.148;11.542;2023-05-13T06:31:53;11.20;99.90
45012;DHT22;63444;48.148;11.542;2023-05-13T06:34:18;11.30;99.90
45012;DHT22;63444;48.148;11.542;2023-05-13T06:36:44;11.30;99.90
45012;DHT22;63444;48.148;11.542;2023-05-13T06:39:10;11.30;99.90
45012;DHT22;63444;48.148;11.542;2023-05-13T06:41:36;11.30;99.90
45012;DHT22;63444;48.148;11.542;2023-05-13T06:44:02;11.30;99.90
45012;DHT22;63444;48.148;11.542;2023-05-13T06:46:28;11.30;99.90
45012;DHT22;63444;48.148;11.542;2023-05-13T06:48:53;11.30;99.90
45012;DHT22;63444;48.148;11.542;2023-05-13T06:51:21;11.30;99.90
45012;DHT22;63444;48.148;11.542;2023-05-13T06:53:46;11.40;99.90
45012;DHT22;63444;48.148;11.542;2023-05-13T06:56:12;11.40;99.90
45012;DHT22;63444;48.148;11.542;2023-05-13T06:58:38;11.40;99.90
45012;DHT22;63444;48.148;11.542;2023-05-13T07:01:03;11.50;99.90
45012;DHT22;63444;48.148;11.542;2023-05-13T07:03:29;11.50;99.90
45012;DHT22;63444;48.148;11.542;2023-05-13T07:05:54;11.60;99.90
45012;DHT22;63444;48.148;11.542;2023-05-13T07:08:21;11.60;99.90
45012;DHT22;63444;48.148;11.542;2023-05-13T07:10:46;11.50;99.90
45012;DHT22;63444;48.148;11.542;2023-05-13T07:13:12;11.60;99.90
45012;DHT22;63444;48.148;11.542;2023-05-13T07:15:38;11.60;99.90
45012;DHT22;63444;48.148;11.542;2023-05-13T07:18:04;11.70;99.90
45012;DHT22;63444;48.148;11.542;2023-05-13T07:20:30;11.60;99.90
45012;DHT22;63444;48.148;11.542;2023-05-13T07:22:56;11.60;99.90
45012;DHT22;63444;48.148;11.542;2023-05-13T07:25:21;11.60;99.90
45012;DHT22;63444;48.148;11.542;2023-05-13T07:27:47;11.70;99.90
45012;DHT22;63444;48.148;11.542;2023-05-13T07:30:13;11.80;99.90
45012;DHT22;63444;48.148;11.542;2023-05-13T07:32:39;11.70;99.90
45012;DHT22;63444;48.148;11.542;2023-05-13T07:35:05;11.70;99.90
45012;DHT22;63444;48.148;11.542;2023-05-13T07:37:31;11.60;99.90
45012;DHT22;63444;48.148;11.542;2023-05-13T07:39:57;11.40;99.90
45012;DHT22;63444;48.148;11.542;2023-05-13T07:42:23;11.60;99.90
45012;DHT22;63444;48.148;11.542;2023-05-13T07:44:49;11.50;99.90
45012;DHT22;63444;48.148;11.542;2023-05-13T07:47:14;11.60;99.90
45012;DHT22;63444;48.148;11.542;2023-05-13T07:49:40;11.60;99.90
45012;DHT22;63444;48.148;11.542;2023-05-13T07:52:05;11.60;99.90
45012;DHT22;63444;48.148;11.542;2023-05-13T07:54:31;11.60;99.90
45012;DHT22;63444;48.148;11.542;2023-05-13T07:56:57;11.60;99.90
45012;DHT22;63444;48.148;11.542;2023-05-13T07:59:23;11.70;99.90
45012;DHT22;63444;48.148;11.542;2023-05-13T08:01:48;11.70;99.90
45012;DHT22;63444;48.148;11.542;2023-05-13T08:04:14;11.70;99.90
45012;DHT22;63444;48.148;11.542;2023-05-13T08:06:39;11.70;99.90
45012;DHT22;63444;48.148;11.542;2023-05-13T08:09:05;11.70;99.90
45012;DHT22;63444;48.148;11.542;2023-05-13T08:11:30;11.70;99.90
45012;DHT22;63444;48.148;11.542;2023-05-13T08:13:56;11.70;99.90
45012;DHT22;63444;48.148;11.542;2023-05-13T08:16:22;11.80;99.90
45012;DHT22;63444;48.148;11.542;2023-05-13T08:18:47;11.70;99.90
45012;DHT22;63444;48.148;11.542;2023-05-13T08:21:13;11.70;99.90
45012;DHT22;63444;48.148;11.542;2023-05-13T08:23:38;11.70;99.90
45012;DHT22;63444;48.148;11.542;2023-05-13T08:26:04;11.80;99.90
45012;DHT22;63444;48.148;11.542;2023-05-13T08:28:30;11.80;99.90
45012;DHT22;63444;48.148;11.542;2023-05-13T08:30:55;11.80;99.90
45012;DHT22;63444;48.148;11.542;2023-05-13T08:33:28;11.80;99.90
45012;DHT22;63444;48.148;11.542;2023-05-13T08:35:54;11.80;99.90
45012;DHT22;63444;48.148;11.542;2023-05-13T08:38:20;11.90;99.90
45012;DHT22;63444;48.148;11.542;2023-05-13T08:40:46;11.90;99.90
45012;DHT22;63444;48.148;11.542;2023-05-13T08:43:14;11.90;99.90
45012;DHT22;63444;48.148;11.542;2023-05-13T08:45:41;11.90;99.90
45012;DHT22;63444;48.148;11.542;2023-05-13T08:48:09;11.90;99.90
45012;DHT22;63444;48.148;11.542;2023-05-13T08:50:35;11.90;99.90
45012;DHT22;63444;48.148;11.542;2023-05-13T08:53:01;11.90;99.90
45012;DHT22;63444;48.148;11.542;2023-05-13T08:55:28;11.90;99.90
45012;DHT22;63444;48.148;11.542;2023-05-13T08:57:53;11.90;99.90
45012;DHT22;63444;48.148;11.542;2023-05-13T09:00:19;11.90;99.90
45012;DHT22;63444;48.148;11.542;2023-05-13T09:02:45;11.90;99.90
45012;DHT22;63444;48.148;11.542;2023-05-13T09:05:11;11.90;99.90
45012;DHT22;63444;48.148;11.542;2023-05-13T09:07:37;12.00;99.90
45012;DHT22;63444;48.148;11.542;2023-05-13T09:10:04;12.00;99.90
45012;DHT22;63444;48.148;11.542;2023-05-13T09:15:22;12.00;99.90
45012;DHT22;63444;48.148;11.542;2023-05-13T09:18:06;12.20;99.90
45012;DHT22;63444;48.148;11.542;2023-05-13T09:20:32;12.10;99.90
45012;DHT22;63444;48.148;11.542;2023-05-13T09:23:06;12.10;99.90
45012;DHT22;63444;48.148;11.542;2023-05-13T09:25:33;12.20;99.90
45012;DHT22;63444;48.148;11.542;2023-05-13T09:28:00;12.20;99.90
45012;DHT22;63444;48.148;11.542;2023-05-13T09:30:27;12.20;99.90
45012;DHT22;63444;48.148;11.542;2023-05-13T09:33:14;12.30;99.90
45012;DHT22;63444;48.148;11.542;2023-05-13T09:35:48;12.20;99.90
45012;DHT22;63444;48.148;11.542;2023-05-13T09:38:17;12.20;99.90
45012;DHT22;63444;48.148;11.542;2023-05-13T09:40:57;12.20;99.90
45012;DHT22;63444;48.148;11.542;2023-05-13T09:43:27;12.10;99.90
45012;DHT22;63444;48.148;11.542;2023-05-13T09:45:54;12.10;99.90
45012;DHT22;63444;48.148;11.542;2023-05-13T09:48:28;12.10;99.90
45012;DHT22;63444;48.148;11.542;2023-05-13T09:50:54;12.10;99.90
45012;DHT22;63444;48.148;11.542;2023-05-13T09:53:22;12.20;99.90
45012;DHT22;63444;48.148;11.542;2023-05-13T09:55:49;12.30;99.90
45012;DHT22;63444;48.148;11.542;2023-05-13T09:58:15;12.40;99.90
45012;DHT22;63444;48.148;11.542;2023-05-13T10:00:42;12.50;99.90
45012;DHT22;63444;48.148;11.542;2023-05-13T10:03:09;12.60;99.90
45012;DHT22;63444;48.148;11.542;2023-05-13T10:05:37;12.60;99.90
45012;DHT22;63444;48.148;11.542;2023-05-13T10:08:04;12.60;99.90
45012;DHT22;63444;48.148;11.542;2023-05-13T10:10:30;12.60;99.90
45012;DHT22;63444;48.148;11.542;2023-05-13T10:13:02;12.60;99.90
45012;DHT22;63444;48.148;11.542;2023-05-13T10:15:29;12.60;99.90
45012;DHT22;63444;48.148;11.542;2023-05-13T10:17:56;12.70;99.90
45012;DHT22;63444;48.148;11.542;2023-05-13T10:20:23;12.80;99.90
45012;DHT22;63444;48.148;11.542;2023-05-13T10:22:51;12.80;99.90
45012;DHT22;63444;48.148;11.542;2023-05-13T10:25:17;12.80;99.90
45012;DHT22;63444;48.148;11.542;2023-05-13T10:27:42;12.90;99.90
45012;DHT22;63444;48.148;11.542;2023-05-13T10:30:10;12.90;99.90
45012;DHT22;63444;48.148;11.542;2023-05-13T10:32:36;12.90;99.90
45012;DHT22;63444;48.148;11.542;2023-05-13T10:35:13;13.00;99.90
45012;DHT22;63444;48.148;11.542;2023-05-13T10:43:28;13.00;99.90
45012;DHT22;63444;48.148;11.542;2023-05-13T10:45:58;13.10;99.90
45012;DHT22;63444;48.148;11.542;2023-05-13T10:48:24;13.10;99.90
45012;DHT22;63444;48.148;11.542;2023-05-13T10:50:54;13.10;99.90
45012;DHT22;63444;48.148;11.542;2023-05-13T10:53:28;13.10;99.90
45012;DHT22;63444;48.148;11.542;2023-05-13T10:55:55;13.10;99.90
45012;DHT22;63444;48.148;11.542;2023-05-13T10:58:28;13.10;99.90
45012;DHT22;63444;48.148;11.542;2023-05-13T11:01:27;13.00;99.90
45012;DHT22;63444;48.148;11.542;2023-05-13T11:04:04;13.00;99.90
45012;DHT22;63444;48.148;11.542;2023-05-13T11:09:00;13.00;99.90
45012;DHT22;63444;48.148;11.542;2023-05-13T11:11:28;13.20;99.90
45012;DHT22;63444;48.148;11.542;2023-05-13T11:14:16;13.10;99.90
45012;DHT22;63444;48.148;11.542;2023-05-13T11:19:28;13.20;99.90
45012;DHT22;63444;48.148;11.542;2023-05-13T11:21:56;13.30;99.90
45012;DHT22;63444;48.148;11.542;2023-05-13T11:24:23;13.40;99.90
45012;DHT22;63444;48.148;11.542;2023-05-13T11:26:57;13.30;99.90
45012;DHT22;63444;48.148;11.542;2023-05-13T11:29:33;13.40;99.90
45012;DHT22;63444;48.148;11.542;2023-05-13T11:32:01;13.40;99.90
45012;DHT22;63444;48.148;11.542;2023-05-13T11:34:28;13.40;99.90
45012;DHT22;63444;48.148;11.542;2023-05-13T11:37:05;13.40;99.90
45012;DHT22;63444;48.148;11.542;2023-05-13T11:39:32;13.40;99.90
45012;DHT22;63444;48.148;11.542;2023-05-13T11:41:57;13.40;99.90
45012;DHT22;63444;48.148;11.542;2023-05-13T11:44:26;13.50;99.90
45012;DHT22;63444;48.148;11.542;2023-05-13T11:46:57;13.50;99.90
45012;DHT22;63444;48.148;11.542;2023-05-13T11:49:39;13.50;99.90
45012;DHT22;63444;48.148;11.542;2023-05-13T11:52:12;13.50;99.90
45012;DHT22;63444;48.148;11.542;2023-05-13T11:54:55;13.60;99.90
45012;DHT22;63444;48.148;11.542;2023-05-13T11:57:28;13.60;99.90
45012;DHT22;63444;48.148;11.542;2023-05-13T12:00:02;13.70;99.90
45012;DHT22;63444;48.148;11.542;2023-05-13T12:02:36;13.70;99.90
45012;DHT22;63444;48.148;11.542;2023-05-13T12:05:09;13.70;99.90
45012;DHT22;63444;48.148;11.542;2023-05-13T12:07:36;13.70;99.90
45012;DHT22;63444;48.148;11.542;2023-05-13T12:10:04;13.70;99.90
45012;DHT22;63444;48.148;11.542;2023-05-13T12:12:31;13.70;99.90
45012;DHT22;63444;48.148;11.542;2023-05-13T12:15:01;13.60;99.90
45012;DHT22;63444;48.148;11.542;2023-05-13T12:17:26;13.60;99.90
45012;DHT22;63444;48.148;11.542;2023-05-13T12:20:12;13.70;99.90
45012;DHT22;63444;48.148;11.542;2023-05-13T12:25:39;13.80;99.90
45012;DHT22;63444;48.148;11.542;2023-05-13T12:30:42;13.90;99.90
45012;DHT22;63444;48.148;11.542;2023-05-13T12:33:16;14.00;99.90
45012;DHT22;63444;48.148;11.542;2023-05-13T12:35:43;14.00;99.90
45012;DHT22;63444;48.148;11.542;2023-05-13T12:38:17;14.00;99.90
45012;DHT22;63444;48.148;11.542;2023-05-13T12:40:47;14.10;99.90
45012;DHT22;63444;48.148;11.542;2023-05-13T12:43:14;14.10;99.90
45012;DHT22;63444;48.148;11.542;2023-05-13T12:45:41;14.20;99.90
45012;DHT22;63444;48.148;11.542;2023-05-13T12:48:07;14.20;99.90
45012;DHT22;63444;48.148;11.542;2023-05-13T12:50:33;14.30;99.90
45012;DHT22;63444;48.148;11.542;2023-05-13T12:52:58;14.40;99.90
45012;DHT22;63444;48.148;11.542;2023-05-13T12:55:25;14.40;99.90
45012;DHT22;63444;48.148;11.542;2023-05-13T12:58:02;14.40;99.90
45012;DHT22;63444;48.148;11.542;2023-05-13T13:00:29;14.50;99.90
45012;DHT22;63444;48.148;11.542;2023-05-13T13:02:55;14.50;99.90
45012;DHT22;63444;48.148;11.542;2023-05-13T13:05:22;14.50;99.90
45012;DHT22;63444;48.148;11.542;2023-05-13T13:07:48;14.50;99.90
45012;DHT22;63444;48.148;11.542;2023-05-13T13:10:14;14.40;99.90
45012;DHT22;63444;48.148;11.542;2023-05-13T13:12:40;14.40;99.90
45012;DHT22;63444;48.148;11.542;2023-05-13T13:15:06;14.40;99.90
45012;DHT22;63444;48.148;11.542;2023-05-13T13:17:32;14.40;99.90
45012;DHT22;63444;48.148;11.542;2023-05-13T13:19:57;14.50;99.90
45012;DHT22;63444;48.148;11.542;2023-05-13T13:22:24;14.30;99.90
45012;DHT22;63444;48.148;11.542;2023-05-13T13:24:49;14.30;99.90
45012;DHT22;63444;48.148;11.542;2023-05-13T13:27:15;14.30;99.90
45012;DHT22;63444;48.148;11.542;2023-05-13T13:29:40;14.40;99.90
45012;DHT22;63444;48.148;11.542;2023-05-13T13:32:06;14.30;99.90
45012;DHT22;63444;48.148;11.542;2023-05-13T13:34:32;14.30;99.90
45012;DHT22;63444;48.148;11.542;2023-05-13T13:36:58;14.30;99.90
45012;DHT22;63444;48.148;11.542;2023-05-13T13:39:23;14.30;99.90
45012;DHT22;63444;48.148;11.542;2023-05-13T13:41:49;14.30;99.90
45012;DHT22;63444;48.148;11.542;2023-05-13T13:44:14;14.30;99.90
45012;DHT22;63444;48.148;11.542;2023-05-13T13:46:40;14.40;99.90
45012;DHT22;63444;48.148;11.542;2023-05-13T13:49:06;14.50;99.90
45012;DHT22;63444;48.148;11.542;2023-05-13T13:51:31;14.50;99.90
45012;DHT22;63444;48.148;11.542;2023-05-13T13:54:05;14.60;99.90
45012;DHT22;63444;48.148;11.542;2023-05-13T13:56:32;14.80;99.90
45012;DHT22;63444;48.148;11.542;2023-05-13T13:58:58;14.80;99.90
45012;DHT22;63444;48.148;11.542;2023-05-13T14:01:23;14.90;99.90
45012;DHT22;63444;48.148;11.542;2023-05-13T14:03:49;15.20;99.90
45012;DHT22;63444;48.148;11.542;2023-05-13T14:06:15;15.20;99.90
45012;DHT22;63444;48.148;11.542;2023-05-13T14:08:40;15.20;99.90
45012;DHT22;63444;48.148;11.542;2023-05-13T14:11:06;15.20;99.90
45012;DHT22;63444;48.148;11.542;2023-05-13T14:13:31;15.20;99.90
45012;DHT22;63444;48.148;11.542;2023-05-13T14:15:57;15.20;99.90
45012;DHT22;63444;48.148;11.542;2023-05-13T14:18:23;15.20;99.90
45012;DHT22;63444;48.148;11.542;2023-05-13T14:20:48;15.20;99.90
45012;DHT22;63444;48.148;11.542;2023-05-13T14:23:15;15.10;99.90
45012;DHT22;63444;48.148;11.542;2023-05-13T14:25:40;15.10;99.90
45012;DHT22;63444;48.148;11.542;2023-05-13T14:28:06;15.00;99.90
45012;DHT22;63444;48.148;11.542;2023-05-13T14:30:31;15.00;99.90
45012;DHT22;63444;48.148;11.542;2023-05-13T14:32:58;14.90;99.90
45012;DHT22;63444;48.148;11.542;2023-05-13T14:35:24;15.20;99.90
45012;DHT22;63444;48.148;11.542;2023-05-13T14:37:50;15.10;99.90
45012;DHT22;63444;48.148;11.542;2023-05-13T14:40:16;15.10;99.90
45012;DHT22;63444;48.148;11.542;2023-05-13T14:42:41;15.20;99.90
45012;DHT22;63444;48.148;11.542;2023-05-13T14:45:07;15.10;99.90
45012;DHT22;63444;48.148;11.542;2023-05-13T14:47:33;15.20;99.90
45012;DHT22;63444;48.148;11.542;2023-05-13T14:49:59;15.20;99.90
45012;DHT22;63444;48.148;11.542;2023-05-13T14:52:25;15.20;99.90
45012;DHT22;63444;48.148;11.542;2023-05-13T14:54:50;15.20;99.90
45012;DHT22;63444;48.148;11.542;2023-05-13T14:57:16;15.30;99.90
45012;DHT22;63444;48.148;11.542;2023-05-13T14:59:42;15.40;99.90
45012;DHT22;63444;48.148;11.542;2023-05-13T15:02:07;15.40;99.90
45012;DHT22;63444;48.148;11.542;2023-05-13T15:04:33;15.40;99.90
45012;DHT22;63444;48.148;11.542;2023-05-13T15:07:00;15.50;99.90
45012;DHT22;63444;48.148;11.542;2023-05-13T15:09:26;15.50;99.90
45012;DHT22;63444;48.148;11.542;2023-05-13T15:11:52;15.50;99.90
45012;DHT22;63444;48.148;11.542;2023-05-13T15:14:17;15.60;99.90
45012;DHT22;63444;48.148;11.542;2023-05-13T15:16:43;15.70;99.90
45012;DHT22;63444;48.148;11.542;2023-05-13T15:19:08;15.70;99.90
45012;DHT22;63444;48.148;11.542;2023-05-13T15:21:34;15.80;99.90
45012;DHT22;63444;48.148;11.542;2023-05-13T15:24:00;15.90;99.90
45012;DHT22;63444;48.148;11.542;2023-05-13T15:26:25;15.80;99.90
45012;DHT22;63444;48.148;11.542;2023-05-13T15:28:51;15.80;99.90
45012;DHT22;63444;48.148;11.542;2023-05-13T15:31:17;15.80;99.90
45012;DHT22;63444;48.148;11.542;2023-05-13T15:33:42;15.80;99.90
45012;DHT22;63444;48.148;11.542;2023-05-13T15:36:08;15.70;99.90